Wylde Swan — PIWS — position and weather

sailwx.info

Track history (hours):
 
Tides and Currents Weather Stations Pressure Air Temp Water Temp Dewpoint Dewpoint Depression Visibility Wind Speed Wind Dir Waves Ship Positions

Wylde Swan

Last reported at 2018-May-16 22:58 UTC. Time now 2018-May-23 22:26 UTC.
Position N 39°43' W 027°36'.

Length 45 m; draft 3.4 m.

Type: Sailing vessel. MMSI: 244074000.

Date/timePositionNaut miles runAvg speedWind from/ knotsBaromVisibWave heightAir tempDewpointWater temp
2018-May-16 22:58N 39°43' W 027°36'3 6.7
2018-May-16 22:29N 39°41' W 027°38'4 6.7
2018-May-16 21:56N 39°37' W 027°41'3 6.7
2018-May-16 21:30N 39°35' W 027°43'3 6.6
2018-May-16 21:00N 39°32' W 027°45'3 6.6
2018-May-16 20:30N 39°29' W 027°47'3 6.5
2018-May-16 20:00N 39°27' W 027°49'3 6.6
2018-May-16 19:30N 39°24' W 027°51'3 6.4
2018-May-16 19:00N 39°21' W 027°53'3 6.2
2018-May-16 18:30N 39°18' W 027°55'3 6.1
2018-May-16 18:00N 39°16' W 027°57'3 6.2
2018-May-16 17:30N 39°13' W 027°60'3 6.1
2018-May-16 17:00N 39°10' W 028°02'3 6.3
2018-May-16 16:30N 39°08' W 028°04'3 6.5
2018-May-16 16:00N 39°05' W 028°06'3 6.6
2018-May-16 15:30N 39°02' W 028°09'3 6.8
2018-May-16 15:00N 38°59' W 028°11'3 6.7
2018-May-16 14:30N 38°57' W 028°13'3 6.4
2018-May-16 14:00N 38°54' W 028°15'3 6.6
2018-May-16 13:31N 38°51' W 028°18'4 7.0
2018-May-16 13:00N 38°48' W 028°20'4 7.1
2018-May-16 12:30N 38°45' W 028°23'3 7.0
2018-May-16 12:01N 38°42' W 028°25'3 6.6
2018-May-16 11:30N 38°40' W 028°28'3 6.4
2018-May-16 11:00N 38°37' W 028°30'3 5.2
2018-May-16 10:30N 38°35' W 028°32'3 5.5
2018-May-16 10:00N 38°33' W 028°34'2 4.6
2018-May-16 09:30N 38°32' W 028°37'0 0.3
2018-May-16 09:00N 38°32' W 028°37'0 0.4
2018-May-16 08:30N 38°32' W 028°37'0 0.0
2018-May-16 08:00N 38°32' W 028°37'0 0.0
2018-May-16 07:30N 38°32' W 028°37'0 0.0
2018-May-16 07:00N 38°32' W 028°37'0 0.0
2018-May-16 06:30N 38°32' W 028°37'0 0.0
2018-May-16 06:00N 38°32' W 028°37'0 0.0
2018-May-16 05:30N 38°32' W 028°37'0 0.0
2018-May-16 05:00N 38°32' W 028°37'0 0.0
2018-May-16 04:30N 38°32' W 028°37'0 0.0
2018-May-16 04:00N 38°32' W 028°37'0 0.0
2018-May-16 03:30N 38°32' W 028°37'0 0.0
2018-May-16 03:00N 38°32' W 028°37'0 0.0
2018-May-16 02:30N 38°32' W 028°37'0 0.0
2018-May-16 02:00N 38°32' W 028°37'0 0.0
2018-May-16 01:30N 38°32' W 028°37'0 0.0
2018-May-16 01:00N 38°32' W 028°37'0 0.0
2018-May-16 00:30N 38°32' W 028°37'0 0.0
2018-May-16 00:00N 38°32' W 028°37'0 0.0
2018-May-15 23:30N 38°32' W 028°37'0 0.0
2018-May-15 23:01N 38°32' W 028°37'0 0.0
2018-May-15 22:30N 38°32' W 028°37'0 0.0
2018-May-15 22:00N 38°32' W 028°37'0 0.0
2018-May-15 21:30N 38°32' W 028°37'1 1.8
2018-May-15 21:00N 38°32' W 028°36'0 0.4
2018-May-15 20:30N 38°32' W 028°36'0 0.4
2018-May-15 20:00N 38°32' W 028°37'1 1.4
2018-May-15 19:30N 38°32' W 028°37'0 0.1
2018-May-15 18:58N 38°32' W 028°37'0 0.0
2018-May-15 18:28N 38°32' W 028°37'0 0.0
2018-May-15 17:58N 38°32' W 028°37'0 0.0
2018-May-15 17:28N 38°32' W 028°37'0 0.0
2018-May-15 16:58N 38°32' W 028°37'0 0.0
2018-May-15 16:28N 38°32' W 028°37'0 0.0
2018-May-15 15:58N 38°32' W 028°37'0 0.0
2018-May-15 15:25N 38°32' W 028°37'0 0.0
2018-May-15 14:58N 38°32' W 028°37'0 0.0
2018-May-15 14:28N 38°32' W 028°37'0 0.0
2018-May-15 13:55N 38°32' W 028°37'0 0.0
2018-May-15 13:25N 38°32' W 028°37'0 0.0
2018-May-15 12:58N 38°32' W 028°37'0 0.0
2018-May-15 12:28N 38°32' W 028°37'0 0.0
2018-May-15 11:58N 38°32' W 028°37'0 0.0
2018-May-15 11:28N 38°32' W 028°37'0 0.0
2018-May-15 10:58N 38°32' W 028°37'0 0.0
2018-May-15 10:28N 38°32' W 028°37'0 0.0
2018-May-15 09:58N 38°32' W 028°37'0 0.0
2018-May-15 09:28N 38°32' W 028°37'0 0.0
2018-May-15 08:58N 38°32' W 028°37'0 0.0
2018-May-15 08:28N 38°32' W 028°37'0 0.0
2018-May-15 07:58N 38°32' W 028°37'0 0.0
2018-May-15 07:28N 38°32' W 028°37'0 0.0
2018-May-15 06:58N 38°32' W 028°37'0 0.0
2018-May-15 06:22N 38°32' W 028°37'0 0.0
2018-May-15 05:58N 38°32' W 028°37'0 0.0
2018-May-15 05:28N 38°32' W 028°37'0 0.0
2018-May-15 04:58N 38°32' W 028°37'0 0.0
2018-May-15 04:28N 38°32' W 028°37'0 0.0
2018-May-15 03:58N 38°32' W 028°37'0 0.0
2018-May-15 03:28N 38°32' W 028°37'0 0.0
2018-May-15 02:58N 38°32' W 028°37'0 0.0
2018-May-15 02:28N 38°32' W 028°37'0 0.0
2018-May-15 01:58N 38°32' W 028°37'0 0.0
2018-May-15 01:28N 38°32' W 028°37'0 0.0
2018-May-15 00:58N 38°32' W 028°37'0 0.0
2018-May-15 00:28N 38°32' W 028°37'0 0.0
2018-May-14 23:58N 38°32' W 028°37'0 0.0
2018-May-14 23:28N 38°32' W 028°37'0 0.0
2018-May-14 22:58N 38°32' W 028°37'0 0.0
2018-May-14 22:28N 38°32' W 028°37'0 0.0
2018-May-14 21:58N 38°32' W 028°37'0 0.0
2018-May-14 21:28N 38°32' W 028°37'0 0.0
2018-May-14 20:58N 38°32' W 028°37'0 0.0
2018-May-14 20:28N 38°32' W 028°37'0 0.0
2018-May-14 19:58N 38°32' W 028°37'0 0.0
2018-May-14 19:28N 38°32' W 028°37'0 0.0
2018-May-14 18:58N 38°32' W 028°37'0 0.0
2018-May-14 18:28N 38°32' W 028°37'0 0.0
2018-May-14 17:58N 38°32' W 028°37'0 0.0
2018-May-14 17:28N 38°32' W 028°37'0 0.0
2018-May-14 16:58N 38°32' W 028°37'0 0.0
2018-May-14 16:28N 38°32' W 028°37'0 0.0
2018-May-14 15:58N 38°32' W 028°37'0 0.0
2018-May-14 15:28N 38°32' W 028°37'0 0.0
2018-May-14 14:58N 38°32' W 028°37'0 0.0
2018-May-14 14:28N 38°32' W 028°37'0 0.0
2018-May-14 14:00N 38°32' W 028°37'0 0.0
2018-May-14 13:30N 38°32' W 028°37'0 0.0
2018-May-14 13:00N 38°32' W 028°37'0 0.0
2018-May-14 12:30N 38°32' W 028°37'0 0.0
2018-May-14 12:00N 38°32' W 028°37'0 0.0
2018-May-14 11:27N 38°32' W 028°37'0 0.0
2018-May-14 11:00N 38°32' W 028°37'0 0.0
2018-May-14 10:30N 38°32' W 028°37'0 0.0
2018-May-14 09:57N 38°32' W 028°37'0 0.0
2018-May-14 09:30N 38°32' W 028°37'0 0.0
2018-May-14 09:00N 38°32' W 028°37'0 0.0
2018-May-14 08:30N 38°32' W 028°37'0 0.0
2018-May-14 08:00N 38°32' W 028°37'0 0.0
2018-May-14 07:30N 38°32' W 028°37'0 0.0
2018-May-14 07:00N 38°32' W 028°37'0 0.0
2018-May-14 06:30N 38°32' W 028°37'0 0.0
2018-May-14 06:00N 38°32' W 028°37'0 0.0
2018-May-14 05:30N 38°32' W 028°37'0 0.0
2018-May-14 05:00N 38°32' W 028°37'0 0.0
2018-May-14 04:27N 38°32' W 028°37'0 0.0
2018-May-14 04:00N 38°32' W 028°37'0 0.0
2018-May-14 03:30N 38°32' W 028°37'0 0.0
2018-May-14 03:00N 38°32' W 028°37'0 0.0
2018-May-14 02:30N 38°32' W 028°37'0 0.0
2018-May-14 02:00N 38°32' W 028°37'0 0.0
2018-May-14 01:30N 38°32' W 028°37'0 0.0
2018-May-14 01:00N 38°32' W 028°37'0 0.0
2018-May-14 00:30N 38°32' W 028°37'0 0.0
2018-May-14 00:00N 38°32' W 028°37'0 0.0
2018-May-13 23:30N 38°32' W 028°37'0 0.0
2018-May-13 23:00N 38°32' W 028°37'0 0.0
2018-May-13 22:30N 38°32' W 028°37'0 0.0
2018-May-13 22:00N 38°32' W 028°37'0 0.0
2018-May-13 21:30N 38°32' W 028°37'0 0.0
2018-May-13 21:00N 38°32' W 028°37'0 0.0
2018-May-13 20:30N 38°32' W 028°37'0 0.0
2018-May-13 19:59N 38°32' W 028°37'0 0.0
2018-May-13 19:29N 38°32' W 028°37'0 0.0
2018-May-13 18:58N 38°32' W 028°37'0 0.0
2018-May-13 18:28N 38°32' W 028°37'0 0.0
2018-May-13 17:58N 38°32' W 028°37'0 0.0
2018-May-13 17:28N 38°32' W 028°37'0 0.0
2018-May-13 16:58N 38°32' W 028°37'0 0.0
2018-May-13 16:28N 38°32' W 028°37'0 0.0
2018-May-13 15:58N 38°32' W 028°37'0 0.0
2018-May-13 15:28N 38°32' W 028°37'0 0.0
2018-May-13 14:58N 38°32' W 028°37'0 0.0
2018-May-13 14:28N 38°32' W 028°37'0 0.0
2018-May-13 13:58N 38°32' W 028°37'0 0.0
2018-May-13 13:28N 38°32' W 028°37'0 0.0
2018-May-13 12:58N 38°32' W 028°37'0 0.0
2018-May-13 12:28N 38°32' W 028°37'0 0.0
2018-May-13 11:58N 38°32' W 028°37'0 0.0
2018-May-13 11:28N 38°32' W 028°37'0 0.0
2018-May-13 10:56N 38°32' W 028°37'0 0.0
2018-May-13 10:29N 38°32' W 028°37'0 0.0
2018-May-13 09:59N 38°32' W 028°37'0 0.0
2018-May-13 09:26N 38°32' W 028°37'0 0.0
2018-May-13 08:59N 38°32' W 028°37'0 0.0
2018-May-13 08:29N 38°32' W 028°37'0 0.0
2018-May-13 07:59N 38°32' W 028°37'0 0.0
2018-May-13 07:29N 38°32' W 028°37'0 0.0
2018-May-13 06:59N 38°32' W 028°37'0 0.0
2018-May-13 06:29N 38°32' W 028°37'0 0.0
2018-May-13 05:59N 38°32' W 028°37'0 0.0
2018-May-13 05:29N 38°32' W 028°37'0 0.0
2018-May-13 04:59N 38°32' W 028°37'0 0.0
2018-May-13 04:26N 38°32' W 028°37'0 0.0
2018-May-13 03:59N 38°32' W 028°37'0 0.0
2018-May-13 03:29N 38°32' W 028°37'0 0.0
2018-May-13 02:59N 38°32' W 028°37'0 0.0
2018-May-13 02:29N 38°32' W 028°37'0 0.0
2018-May-13 01:59N 38°32' W 028°37'0 0.0
2018-May-13 01:29N 38°32' W 028°37'0 0.0
2018-May-13 00:59N 38°32' W 028°37'0 0.0
2018-May-13 00:29N 38°32' W 028°37'0 0.0
2018-May-12 23:53N 38°32' W 028°37'0 0.0
2018-May-12 23:29N 38°32' W 028°37'0 0.0
2018-May-12 22:59N 38°32' W 028°37'0 0.0
2018-May-12 22:29N 38°32' W 028°37'0 0.0
2018-May-12 21:59N 38°32' W 028°37'0 0.0
2018-May-12 21:29N 38°32' W 028°37'0 0.0
2018-May-12 20:59N 38°32' W 028°37'0 0.0
2018-May-12 20:29N 38°32' W 028°37'0 0.0
2018-May-12 19:59N 38°32' W 028°37'0 0.0
2018-May-12 19:29N 38°32' W 028°37'0 0.0
2018-May-12 18:59N 38°32' W 028°37'0 0.0
2018-May-12 18:29N 38°32' W 028°37'0 0.0
2018-May-12 17:59N 38°32' W 028°37'0 0.0
2018-May-12 17:29N 38°32' W 028°37'0 0.0
2018-May-12 16:59N 38°32' W 028°37'0 0.0
2018-May-12 16:29N 38°32' W 028°37'0 0.0
2018-May-12 15:56N 38°32' W 028°37'0 0.0
2018-May-12 15:29N 38°32' W 028°37'0 0.0
2018-May-12 14:59N 38°32' W 028°37'0 0.0
2018-May-12 14:29N 38°32' W 028°37'0 0.0
2018-May-12 13:59N 38°32' W 028°37'0 0.0
2018-May-12 13:29N 38°32' W 028°37'0 0.0
2018-May-12 12:59N 38°32' W 028°37'0 0.0
2018-May-12 12:29N 38°32' W 028°37'0 0.0
2018-May-12 11:59N 38°32' W 028°37'0 0.0
2018-May-12 11:29N 38°32' W 028°37'0 0.0
2018-May-12 10:59N 38°32' W 028°37'0 0.0
2018-May-12 10:29N 38°32' W 028°37'0 0.0
2018-May-12 09:59N 38°32' W 028°37'0 0.0
2018-May-12 09:29N 38°32' W 028°37'0 0.0
2018-May-12 08:56N 38°32' W 028°37'0 0.0
2018-May-12 08:29N 38°32' W 028°37'0 0.0
2018-May-12 07:59N 38°32' W 028°37'0 0.0
2018-May-12 07:29N 38°32' W 028°37'0 0.0
2018-May-12 06:59N 38°32' W 028°37'0 0.0
2018-May-12 06:29N 38°32' W 028°37'0 0.0
2018-May-12 05:59N 38°32' W 028°37'0 0.0
2018-May-12 05:29N 38°32' W 028°37'0 0.0
2018-May-12 04:59N 38°32' W 028°37'0 0.0
2018-May-12 04:29N 38°32' W 028°37'0 0.0
2018-May-12 03:59N 38°32' W 028°37'0 0.0
2018-May-12 03:29N 38°32' W 028°37'0 0.0
2018-May-12 02:59N 38°32' W 028°37'0 0.0
2018-May-12 02:29N 38°32' W 028°37'0 0.0
2018-May-12 01:59N 38°32' W 028°37'0 0.0
2018-May-12 01:29N 38°32' W 028°37'0 0.0
2018-May-12 00:59N 38°32' W 028°37'0 0.0
2018-May-12 00:29N 38°32' W 028°37'0 0.0
2018-May-11 23:59N 38°32' W 028°37'0 0.0
2018-May-11 23:29N 38°32' W 028°37'0 0.0
2018-May-11 22:59N 38°32' W 028°37'0 0.0
2018-May-11 22:29N 38°32' W 028°37'0 0.0
2018-May-11 21:59N 38°32' W 028°37'0 0.0
2018-May-11 21:29N 38°32' W 028°37'0 0.0
2018-May-11 20:59N 38°32' W 028°37'0 0.0
2018-May-11 20:29N 38°32' W 028°37'0 0.0
2018-May-11 19:59N 38°32' W 028°37'0 0.0
2018-May-11 19:29N 38°32' W 028°37'0 0.0
2018-May-11 18:59N 38°32' W 028°37'0 0.0
2018-May-11 18:30N 38°32' W 028°37'0 0.0
2018-May-11 18:00N 38°32' W 028°37'0 0.0
2018-May-11 17:30N 38°32' W 028°37'0 0.0
2018-May-11 17:00N 38°32' W 028°37'0 0.0
2018-May-11 16:30N 38°32' W 028°37'0 0.0
2018-May-11 16:00N 38°32' W 028°37'0 0.0
2018-May-11 15:29N 38°32' W 028°37'0 0.0
2018-May-11 15:00N 38°32' W 028°37'0 0.0
2018-May-11 14:30N 38°32' W 028°37'0 0.0
2018-May-11 13:59N 38°32' W 028°37'0 0.0
2018-May-11 13:30N 38°32' W 028°37'0 0.2
2018-May-11 12:59N 38°32' W 028°37'0 0.1
2018-May-11 12:30N 38°32' W 028°37'0 0.0
2018-May-11 12:00N 38°32' W 028°37'0 0.0
2018-May-11 11:31N 38°32' W 028°37'0 0.0
2018-May-11 11:00N 38°32' W 028°37'0 0.0
2018-May-11 10:30N 38°32' W 028°37'0 0.0
2018-May-11 10:00N 38°32' W 028°37'0 0.2
2018-May-11 09:30N 38°32' W 028°37'1 1.6
2018-May-11 09:00N 38°32' W 028°37'2 3.6
2018-May-11 08:30N 38°31' W 028°37'3 6.6
2018-May-11 08:00N 38°29' W 028°41'3 6.6
2018-May-11 07:30N 38°29' W 028°45'2 3.3
2018-May-11 07:00N 38°29' W 028°47'2 4.8
2018-May-11 06:30N 38°31' W 028°49'5 9.4
2018-May-11 06:00N 38°33' W 028°54'5 9.3
2018-May-11 05:30N 38°35' W 028°60'4 9.0
2018-May-11 05:00N 38°37' W 029°05'4 8.5
2018-May-11 04:30N 38°38' W 029°10'4 8.4
2018-May-11 04:00N 38°40' W 029°15'4 7.9
2018-May-11 03:30N 38°41' W 029°20'4 7.2
2018-May-11 03:00N 38°43' W 029°24'4 7.3
2018-May-11 02:30N 38°44' W 029°29'4 7.0
2018-May-11 02:00N 38°45' W 029°33'4 7.1
2018-May-11 01:30N 38°47' W 029°37'4 7.4
2018-May-11 01:00N 38°48' W 029°41'4 7.7
2018-May-11 00:30N 38°50' W 029°46'4 8.1
2018-May-11 00:01N 38°52' W 029°50'4 8.4
2018-May-10 23:30N 38°54' W 029°55'4 8.8
2018-May-10 23:00N 38°56' W 029°59'3 6.1
2018-May-10 22:30N 38°58' W 030°03'3 6.8
2018-May-10 22:00N 39°00' W 030°06'3 6.8
2018-May-10 21:30N 39°01' W 030°10'4 7.1
2018-May-10 21:00N 39°02' W 030°15'3 6.8
2018-May-10 20:31N 39°03' W 030°19'4 8.0
2018-May-10 20:00N 39°05' W 030°24'4 8.3
2018-May-10 19:30N 39°06' W 030°29'4 8.3
2018-May-10 18:59N 39°08' W 030°34'96 7.4
2018-May-10 06:07N 39°31' W 032°34'  
Track history (hours):
 
Tides and Currents Weather Stations Pressure Air Temp Water Temp Dewpoint Dewpoint Depression Visibility Wind Speed Wind Dir Waves Ship Positions

Wylde Swan

Last reported at 2018-May-16 22:58 UTC. Time now 2018-May-23 22:26 UTC.
Position N 39°43' W 027°36'.

Length 45 m; draft 3.4 m.

Type: Sailing vessel. MMSI: 244074000.

Date/timePositionNaut miles runAvg speedWind from/ knotsBaromVisibWave heightAir tempDewpointWater temp
2018-May-16 22:58N 39°43' W 027°36'3 6.7
2018-May-16 22:29N 39°41' W 027°38'4 6.7
2018-May-16 21:56N 39°37' W 027°41'3 6.7
2018-May-16 21:30N 39°35' W 027°43'3 6.6
2018-May-16 21:00N 39°32' W 027°45'3 6.6
2018-May-16 20:30N 39°29' W 027°47'3 6.5
2018-May-16 20:00N 39°27' W 027°49'3 6.6
2018-May-16 19:30N 39°24' W 027°51'3 6.4
2018-May-16 19:00N 39°21' W 027°53'3 6.2
2018-May-16 18:30N 39°18' W 027°55'3 6.1
2018-May-16 18:00N 39°16' W 027°57'3 6.2
2018-May-16 17:30N 39°13' W 027°60'3 6.1
2018-May-16 17:00N 39°10' W 028°02'3 6.3
2018-May-16 16:30N 39°08' W 028°04'3 6.5
2018-May-16 16:00N 39°05' W 028°06'3 6.6
2018-May-16 15:30N 39°02' W 028°09'3 6.8
2018-May-16 15:00N 38°59' W 028°11'3 6.7
2018-May-16 14:30N 38°57' W 028°13'3 6.4
2018-May-16 14:00N 38°54' W 028°15'3 6.6
2018-May-16 13:31N 38°51' W 028°18'4 7.0
2018-May-16 13:00N 38°48' W 028°20'4 7.1
2018-May-16 12:30N 38°45' W 028°23'3 7.0
2018-May-16 12:01N 38°42' W 028°25'3 6.6
2018-May-16 11:30N 38°40' W 028°28'3 6.4
2018-May-16 11:00N 38°37' W 028°30'3 5.2
2018-May-16 10:30N 38°35' W 028°32'3 5.5
2018-May-16 10:00N 38°33' W 028°34'2 4.6
2018-May-16 09:30N 38°32' W 028°37'0 0.3
2018-May-16 09:00N 38°32' W 028°37'0 0.4
2018-May-16 08:30N 38°32' W 028°37'0 0.0
2018-May-16 08:00N 38°32' W 028°37'0 0.0
2018-May-16 07:30N 38°32' W 028°37'0 0.0
2018-May-16 07:00N 38°32' W 028°37'0 0.0
2018-May-16 06:30N 38°32' W 028°37'0 0.0
2018-May-16 06:00N 38°32' W 028°37'0 0.0
2018-May-16 05:30N 38°32' W 028°37'0 0.0
2018-May-16 05:00N 38°32' W 028°37'0 0.0
2018-May-16 04:30N 38°32' W 028°37'0 0.0
2018-May-16 04:00N 38°32' W 028°37'0 0.0
2018-May-16 03:30N 38°32' W 028°37'0 0.0
2018-May-16 03:00N 38°32' W 028°37'0 0.0
2018-May-16 02:30N 38°32' W 028°37'0 0.0
2018-May-16 02:00N 38°32' W 028°37'0 0.0
2018-May-16 01:30N 38°32' W 028°37'0 0.0
2018-May-16 01:00N 38°32' W 028°37'0 0.0
2018-May-16 00:30N 38°32' W 028°37'0 0.0
2018-May-16 00:00N 38°32' W 028°37'0 0.0
2018-May-15 23:30N 38°32' W 028°37'0 0.0
2018-May-15 23:01N 38°32' W 028°37'0 0.0
2018-May-15 22:30N 38°32' W 028°37'0 0.0
2018-May-15 22:00N 38°32' W 028°37'0 0.0
2018-May-15 21:30N 38°32' W 028°37'1 1.8
2018-May-15 21:00N 38°32' W 028°36'0 0.4
2018-May-15 20:30N 38°32' W 028°36'0 0.4
2018-May-15 20:00N 38°32' W 028°37'1 1.4
2018-May-15 19:30N 38°32' W 028°37'0 0.1
2018-May-15 18:58N 38°32' W 028°37'0 0.0
2018-May-15 18:28N 38°32' W 028°37'0 0.0
2018-May-15 17:58N 38°32' W 028°37'0 0.0
2018-May-15 17:28N 38°32' W 028°37'0 0.0
2018-May-15 16:58N 38°32' W 028°37'0 0.0
2018-May-15 16:28N 38°32' W 028°37'0 0.0
2018-May-15 15:58N 38°32' W 028°37'0 0.0
2018-May-15 15:25N 38°32' W 028°37'0 0.0
2018-May-15 14:58N 38°32' W 028°37'0 0.0
2018-May-15 14:28N 38°32' W 028°37'0 0.0
2018-May-15 13:55N 38°32' W 028°37'0 0.0
2018-May-15 13:25N 38°32' W 028°37'0 0.0
2018-May-15 12:58N 38°32' W 028°37'0 0.0
2018-May-15 12:28N 38°32' W 028°37'0 0.0
2018-May-15 11:58N 38°32' W 028°37'0 0.0
2018-May-15 11:28N 38°32' W 028°37'0 0.0
2018-May-15 10:58N 38°32' W 028°37'0 0.0
2018-May-15 10:28N 38°32' W 028°37'0 0.0
2018-May-15 09:58N 38°32' W 028°37'0 0.0
2018-May-15 09:28N 38°32' W 028°37'0 0.0
2018-May-15 08:58N 38°32' W 028°37'0 0.0
2018-May-15 08:28N 38°32' W 028°37'0 0.0
2018-May-15 07:58N 38°32' W 028°37'0 0.0
2018-May-15 07:28N 38°32' W 028°37'0 0.0
2018-May-15 06:58N 38°32' W 028°37'0 0.0
2018-May-15 06:22N 38°32' W 028°37'0 0.0
2018-May-15 05:58N 38°32' W 028°37'0 0.0
2018-May-15 05:28N 38°32' W 028°37'0 0.0
2018-May-15 04:58N 38°32' W 028°37'0 0.0
2018-May-15 04:28N 38°32' W 028°37'0 0.0
2018-May-15 03:58N 38°32' W 028°37'0 0.0
2018-May-15 03:28N 38°32' W 028°37'0 0.0
2018-May-15 02:58N 38°32' W 028°37'0 0.0
2018-May-15 02:28N 38°32' W 028°37'0 0.0
2018-May-15 01:58N 38°32' W 028°37'0 0.0
2018-May-15 01:28N 38°32' W 028°37'0 0.0
2018-May-15 00:58N 38°32' W 028°37'0 0.0
2018-May-15 00:28N 38°32' W 028°37'0 0.0
2018-May-14 23:58N 38°32' W 028°37'0 0.0
2018-May-14 23:28N 38°32' W 028°37'0 0.0
2018-May-14 22:58N 38°32' W 028°37'0 0.0
2018-May-14 22:28N 38°32' W 028°37'0 0.0
2018-May-14 21:58N 38°32' W 028°37'0 0.0
2018-May-14 21:28N 38°32' W 028°37'0 0.0
2018-May-14 20:58N 38°32' W 028°37'0 0.0
2018-May-14 20:28N 38°32' W 028°37'0 0.0
2018-May-14 19:58N 38°32' W 028°37'0 0.0
2018-May-14 19:28N 38°32' W 028°37'0 0.0
2018-May-14 18:58N 38°32' W 028°37'0 0.0
2018-May-14 18:28N 38°32' W 028°37'0 0.0
2018-May-14 17:58N 38°32' W 028°37'0 0.0
2018-May-14 17:28N 38°32' W 028°37'0 0.0
2018-May-14 16:58N 38°32' W 028°37'0 0.0
2018-May-14 16:28N 38°32' W 028°37'0 0.0
2018-May-14 15:58N 38°32' W 028°37'0 0.0
2018-May-14 15:28N 38°32' W 028°37'0 0.0
2018-May-14 14:58N 38°32' W 028°37'0 0.0
2018-May-14 14:28N 38°32' W 028°37'0 0.0
2018-May-14 14:00N 38°32' W 028°37'0 0.0
2018-May-14 13:30N 38°32' W 028°37'0 0.0
2018-May-14 13:00N 38°32' W 028°37'0 0.0
2018-May-14 12:30N 38°32' W 028°37'0 0.0
2018-May-14 12:00N 38°32' W 028°37'0 0.0
2018-May-14 11:27N 38°32' W 028°37'0 0.0
2018-May-14 11:00N 38°32' W 028°37'0 0.0
2018-May-14 10:30N 38°32' W 028°37'0 0.0
2018-May-14 09:57N 38°32' W 028°37'0 0.0
2018-May-14 09:30N 38°32' W 028°37'0 0.0
2018-May-14 09:00N 38°32' W 028°37'0 0.0
2018-May-14 08:30N 38°32' W 028°37'0 0.0
2018-May-14 08:00N 38°32' W 028°37'0 0.0
2018-May-14 07:30N 38°32' W 028°37'0 0.0
2018-May-14 07:00N 38°32' W 028°37'0 0.0
2018-May-14 06:30N 38°32' W 028°37'0 0.0
2018-May-14 06:00N 38°32' W 028°37'0 0.0
2018-May-14 05:30N 38°32' W 028°37'0 0.0
2018-May-14 05:00N 38°32' W 028°37'0 0.0
2018-May-14 04:27N 38°32' W 028°37'0 0.0
2018-May-14 04:00N 38°32' W 028°37'0 0.0
2018-May-14 03:30N 38°32' W 028°37'0 0.0
2018-May-14 03:00N 38°32' W 028°37'0 0.0
2018-May-14 02:30N 38°32' W 028°37'0 0.0
2018-May-14 02:00N 38°32' W 028°37'0 0.0
2018-May-14 01:30N 38°32' W 028°37'0 0.0
2018-May-14 01:00N 38°32' W 028°37'0 0.0
2018-May-14 00:30N 38°32' W 028°37'0 0.0
2018-May-14 00:00N 38°32' W 028°37'0 0.0
2018-May-13 23:30N 38°32' W 028°37'0 0.0
2018-May-13 23:00N 38°32' W 028°37'0 0.0
2018-May-13 22:30N 38°32' W 028°37'0 0.0
2018-May-13 22:00N 38°32' W 028°37'0 0.0
2018-May-13 21:30N 38°32' W 028°37'0 0.0
2018-May-13 21:00N 38°32' W 028°37'0 0.0
2018-May-13 20:30N 38°32' W 028°37'0 0.0
2018-May-13 19:59N 38°32' W 028°37'0 0.0
2018-May-13 19:29N 38°32' W 028°37'0 0.0
2018-May-13 18:58N 38°32' W 028°37'0 0.0
2018-May-13 18:28N 38°32' W 028°37'0 0.0
2018-May-13 17:58N 38°32' W 028°37'0 0.0
2018-May-13 17:28N 38°32' W 028°37'0 0.0
2018-May-13 16:58N 38°32' W 028°37'0 0.0
2018-May-13 16:28N 38°32' W 028°37'0 0.0
2018-May-13 15:58N 38°32' W 028°37'0 0.0
2018-May-13 15:28N 38°32' W 028°37'0 0.0
2018-May-13 14:58N 38°32' W 028°37'0 0.0
2018-May-13 14:28N 38°32' W 028°37'0 0.0
2018-May-13 13:58N 38°32' W 028°37'0 0.0
2018-May-13 13:28N 38°32' W 028°37'0 0.0
2018-May-13 12:58N 38°32' W 028°37'0 0.0
2018-May-13 12:28N 38°32' W 028°37'0 0.0
2018-May-13 11:58N 38°32' W 028°37'0 0.0
2018-May-13 11:28N 38°32' W 028°37'0 0.0
2018-May-13 10:56N 38°32' W 028°37'0 0.0
2018-May-13 10:29N 38°32' W 028°37'0 0.0
2018-May-13 09:59N 38°32' W 028°37'0 0.0
2018-May-13 09:26N 38°32' W 028°37'0 0.0
2018-May-13 08:59N 38°32' W 028°37'0 0.0
2018-May-13 08:29N 38°32' W 028°37'0 0.0
2018-May-13 07:59N 38°32' W 028°37'0 0.0
2018-May-13 07:29N 38°32' W 028°37'0 0.0
2018-May-13 06:59N 38°32' W 028°37'0 0.0
2018-May-13 06:29N 38°32' W 028°37'0 0.0
2018-May-13 05:59N 38°32' W 028°37'0 0.0
2018-May-13 05:29N 38°32' W 028°37'0 0.0
2018-May-13 04:59N 38°32' W 028°37'0 0.0
2018-May-13 04:26N 38°32' W 028°37'0 0.0
2018-May-13 03:59N 38°32' W 028°37'0 0.0
2018-May-13 03:29N 38°32' W 028°37'0 0.0
2018-May-13 02:59N 38°32' W 028°37'0 0.0
2018-May-13 02:29N 38°32' W 028°37'0 0.0
2018-May-13 01:59N 38°32' W 028°37'0 0.0
2018-May-13 01:29N 38°32' W 028°37'0 0.0
2018-May-13 00:59N 38°32' W 028°37'0 0.0
2018-May-13 00:29N 38°32' W 028°37'0 0.0
2018-May-12 23:53N 38°32' W 028°37'0 0.0
2018-May-12 23:29N 38°32' W 028°37'0 0.0
2018-May-12 22:59N 38°32' W 028°37'0 0.0
2018-May-12 22:29N 38°32' W 028°37'0 0.0
2018-May-12 21:59N 38°32' W 028°37'0 0.0
2018-May-12 21:29N 38°32' W 028°37'0 0.0
2018-May-12 20:59N 38°32' W 028°37'0 0.0
2018-May-12 20:29N 38°32' W 028°37'0 0.0
2018-May-12 19:59N 38°32' W 028°37'0 0.0
2018-May-12 19:29N 38°32' W 028°37'0 0.0
2018-May-12 18:59N 38°32' W 028°37'0 0.0
2018-May-12 18:29N 38°32' W 028°37'0 0.0
2018-May-12 17:59N 38°32' W 028°37'0 0.0
2018-May-12 17:29N 38°32' W 028°37'0 0.0
2018-May-12 16:59N 38°32' W 028°37'0 0.0
2018-May-12 16:29N 38°32' W 028°37'0 0.0
2018-May-12 15:56N 38°32' W 028°37'0 0.0
2018-May-12 15:29N 38°32' W 028°37'0 0.0
2018-May-12 14:59N 38°32' W 028°37'0 0.0
2018-May-12 14:29N 38°32' W 028°37'0 0.0
2018-May-12 13:59N 38°32' W 028°37'0 0.0
2018-May-12 13:29N 38°32' W 028°37'0 0.0
2018-May-12 12:59N 38°32' W 028°37'0 0.0
2018-May-12 12:29N 38°32' W 028°37'0 0.0
2018-May-12 11:59N 38°32' W 028°37'0 0.0
2018-May-12 11:29N 38°32' W 028°37'0 0.0
2018-May-12 10:59N 38°32' W 028°37'0 0.0
2018-May-12 10:29N 38°32' W 028°37'0 0.0
2018-May-12 09:59N 38°32' W 028°37'0 0.0
2018-May-12 09:29N 38°32' W 028°37'0 0.0
2018-May-12 08:56N 38°32' W 028°37'0 0.0
2018-May-12 08:29N 38°32' W 028°37'0 0.0
2018-May-12 07:59N 38°32' W 028°37'0 0.0
2018-May-12 07:29N 38°32' W 028°37'0 0.0
2018-May-12 06:59N 38°32' W 028°37'0 0.0
2018-May-12 06:29N 38°32' W 028°37'0 0.0
2018-May-12 05:59N 38°32' W 028°37'0 0.0
2018-May-12 05:29N 38°32' W 028°37'0 0.0
2018-May-12 04:59N 38°32' W 028°37'0 0.0
2018-May-12 04:29N 38°32' W 028°37'0 0.0
2018-May-12 03:59N 38°32' W 028°37'0 0.0
2018-May-12 03:29N 38°32' W 028°37'0 0.0
2018-May-12 02:59N 38°32' W 028°37'0 0.0
2018-May-12 02:29N 38°32' W 028°37'0 0.0
2018-May-12 01:59N 38°32' W 028°37'0 0.0
2018-May-12 01:29N 38°32' W 028°37'0 0.0
2018-May-12 00:59N 38°32' W 028°37'0 0.0
2018-May-12 00:29N 38°32' W 028°37'0 0.0
2018-May-11 23:59N 38°32' W 028°37'0 0.0
2018-May-11 23:29N 38°32' W 028°37'0 0.0
2018-May-11 22:59N 38°32' W 028°37'0 0.0
2018-May-11 22:29N 38°32' W 028°37'0 0.0
2018-May-11 21:59N 38°32' W 028°37'0 0.0
2018-May-11 21:29N 38°32' W 028°37'0 0.0
2018-May-11 20:59N 38°32' W 028°37'0 0.0
2018-May-11 20:29N 38°32' W 028°37'0 0.0
2018-May-11 19:59N 38°32' W 028°37'0 0.0
2018-May-11 19:29N 38°32' W 028°37'0 0.0
2018-May-11 18:59N 38°32' W 028°37'0 0.0
2018-May-11 18:30N 38°32' W 028°37'0 0.0
2018-May-11 18:00N 38°32' W 028°37'0 0.0
2018-May-11 17:30N 38°32' W 028°37'0 0.0
2018-May-11 17:00N 38°32' W 028°37'0 0.0
2018-May-11 16:30N 38°32' W 028°37'0 0.0
2018-May-11 16:00N 38°32' W 028°37'0 0.0
2018-May-11 15:29N 38°32' W 028°37'0 0.0
2018-May-11 15:00N 38°32' W 028°37'0 0.0
2018-May-11 14:30N 38°32' W 028°37'0 0.0
2018-May-11 13:59N 38°32' W 028°37'0 0.0
2018-May-11 13:30N 38°32' W 028°37'0 0.2
2018-May-11 12:59N 38°32' W 028°37'0 0.1
2018-May-11 12:30N 38°32' W 028°37'0 0.0
2018-May-11 12:00N 38°32' W 028°37'0 0.0
2018-May-11 11:31N 38°32' W 028°37'0 0.0
2018-May-11 11:00N 38°32' W 028°37'0 0.0
2018-May-11 10:30N 38°32' W 028°37'0 0.0
2018-May-11 10:00N 38°32' W 028°37'0 0.2
2018-May-11 09:30N 38°32' W 028°37'1 1.6
2018-May-11 09:00N 38°32' W 028°37'2 3.6
2018-May-11 08:30N 38°31' W 028°37'3 6.6
2018-May-11 08:00N 38°29' W 028°41'3 6.6
2018-May-11 07:30N 38°29' W 028°45'2 3.3
2018-May-11 07:00N 38°29' W 028°47'2 4.8
2018-May-11 06:30N 38°31' W 028°49'5 9.4
2018-May-11 06:00N 38°33' W 028°54'5 9.3
2018-May-11 05:30N 38°35' W 028°60'4 9.0
2018-May-11 05:00N 38°37' W 029°05'4 8.5
2018-May-11 04:30N 38°38' W 029°10'4 8.4
2018-May-11 04:00N 38°40' W 029°15'4 7.9
2018-May-11 03:30N 38°41' W 029°20'4 7.2
2018-May-11 03:00N 38°43' W 029°24'4 7.3
2018-May-11 02:30N 38°44' W 029°29'4 7.0
2018-May-11 02:00N 38°45' W 029°33'4 7.1
2018-May-11 01:30N 38°47' W 029°37'4 7.4
2018-May-11 01:00N 38°48' W 029°41'4 7.7
2018-May-11 00:30N 38°50' W 029°46'4 8.1
2018-May-11 00:01N 38°52' W 029°50'4 8.4
2018-May-10 23:30N 38°54' W 029°55'4 8.8
2018-May-10 23:00N 38°56' W 029°59'3 6.1
2018-May-10 22:30N 38°58' W 030°03'3 6.8
2018-May-10 22:00N 39°00' W 030°06'3 6.8
2018-May-10 21:30N 39°01' W 030°10'4 7.1
2018-May-10 21:00N 39°02' W 030°15'3 6.8
2018-May-10 20:31N 39°03' W 030°19'4 8.0
2018-May-10 20:00N 39°05' W 030°24'4 8.3
2018-May-10 19:30N 39°06' W 030°29'4 8.3
2018-May-10 18:59N 39°08' W 030°34'96 7.4
2018-May-10 06:07N 39°31' W 032°34'  

Dump ship's entire track history